sensor_id;sensor_type;location;lat;lon;timestamp;pressure;altitude;pressure_sealevel;temperature;humidity
17649;BME280;8943;51.110;-4.158;2023-07-20T00:00:46;101427.44;;;20.48;50.64
17649;BME280;8943;51.110;-4.158;2023-07-20T00:03:15;101427.13;;;20.51;50.42
17649;BME280;8943;51.110;-4.158;2023-07-20T00:05:46;101427.44;;;20.48;50.40
17649;BME280;8943;51.110;-4.158;2023-07-20T00:08:15;101424.00;;;20.46;50.33
17649;BME280;8943;51.110;-4.158;2023-07-20T00:10:46;101420.56;;;20.36;50.46
17649;BME280;8943;51.110;-4.158;2023-07-20T00:13:15;101420.88;;;20.32;50.30
17649;BME280;8943;51.110;-4.158;2023-07-20T00:15:45;101416.94;;;20.27;50.41
17649;BME280;8943;51.110;-4.158;2023-07-20T00:18:14;101417.06;;;20.17;50.74
17649;BME280;8943;51.110;-4.158;2023-07-20T00:20:42;101420.06;;;20.14;50.76
17649;BME280;8943;51.110;-4.158;2023-07-20T00:23:10;101419.00;;;20.07;50.65
17649;BME280;8943;51.110;-4.158;2023-07-20T00:25:39;101413.91;;;20.04;50.72
17649;BME280;8943;51.110;-4.158;2023-07-20T00:28:09;101425.06;;;20.01;50.74
17649;BME280;8943;51.110;-4.158;2023-07-20T00:30:38;101416.53;;;19.96;50.79
17649;BME280;8943;51.110;-4.158;2023-07-20T00:33:09;101417.34;;;19.88;50.86
17649;BME280;8943;51.110;-4.158;2023-07-20T00:35:40;101411.72;;;19.82;50.94
17649;BME280;8943;51.110;-4.158;2023-07-20T00:38:08;101409.78;;;19.74;51.07
17649;BME280;8943;51.110;-4.158;2023-07-20T00:40:37;101415.66;;;19.69;50.92
17649;BME280;8943;51.110;-4.158;2023-07-20T00:43:06;101406.84;;;19.67;50.93
17649;BME280;8943;51.110;-4.158;2023-07-20T00:45:36;101411.47;;;19.57;51.10
17649;BME280;8943;51.110;-4.158;2023-07-20T00:48:06;101410.06;;;19.53;51.26
17649;BME280;8943;51.110;-4.158;2023-07-20T00:50:35;101407.81;;;19.48;51.15
17649;BME280;8943;51.110;-4.158;2023-07-20T00:53:04;101396.75;;;19.42;51.38
17649;BME280;8943;51.110;-4.158;2023-07-20T00:55:33;101402.94;;;19.34;51.32
17649;BME280;8943;51.110;-4.158;2023-07-20T00:58:02;101402.56;;;19.29;51.35
17649;BME280;8943;51.110;-4.158;2023-07-20T01:00:32;101395.53;;;19.18;51.49
17649;BME280;8943;51.110;-4.158;2023-07-20T01:03:02;101397.13;;;19.11;51.35
17649;BME280;8943;51.110;-4.158;2023-07-20T01:05:38;101395.31;;;19.02;51.35
17649;BME280;8943;51.110;-4.158;2023-07-20T01:08:12;101390.69;;;18.94;51.59
17649;BME280;8943;51.110;-4.158;2023-07-20T01:10:44;101401.22;;;18.88;51.74
17649;BME280;8943;51.110;-4.158;2023-07-20T01:13:15;101384.50;;;18.84;51.71
17649;BME280;8943;51.110;-4.158;2023-07-20T01:15:49;101387.94;;;18.76;51.91
17649;BME280;8943;51.110;-4.158;2023-07-20T01:18:19;101385.00;;;18.70;51.58
17649;BME280;8943;51.110;-4.158;2023-07-20T01:20:48;101386.69;;;18.61;51.71
17649;BME280;8943;51.110;-4.158;2023-07-20T01:23:28;101384.72;;;18.53;51.94
17649;BME280;8943;51.110;-4.158;2023-07-20T01:26:27;101372.00;;;18.46;52.08
17649;BME280;8943;51.110;-4.158;2023-07-20T01:29:30;101378.00;;;18.40;52.04
17649;BME280;8943;51.110;-4.158;2023-07-20T01:32:06;101383.25;;;18.32;52.31
17649;BME280;8943;51.110;-4.158;2023-07-20T01:34:38;101375.03;;;18.23;52.12
17649;BME280;8943;51.110;-4.158;2023-07-20T01:37:08;101381.03;;;18.17;52.26
17649;BME280;8943;51.110;-4.158;2023-07-20T01:39:38;101373.94;;;18.16;52.09
17649;BME280;8943;51.110;-4.158;2023-07-20T01:42:07;101366.41;;;18.10;52.38
17649;BME280;8943;51.110;-4.158;2023-07-20T01:44:37;101356.50;;;18.11;52.31
17649;BME280;8943;51.110;-4.158;2023-07-20T01:47:07;101360.03;;;18.11;52.72
17649;BME280;8943;51.110;-4.158;2023-07-20T01:49:36;101365.13;;;18.14;52.33
17649;BME280;8943;51.110;-4.158;2023-07-20T01:52:05;101357.34;;;18.11;52.50
17649;BME280;8943;51.110;-4.158;2023-07-20T01:54:33;101359.31;;;18.09;52.47
17649;BME280;8943;51.110;-4.158;2023-07-20T01:57:02;101356.78;;;18.08;52.59
17649;BME280;8943;51.110;-4.158;2023-07-20T01:59:34;101349.97;;;18.04;52.46
17649;BME280;8943;51.110;-4.158;2023-07-20T02:02:02;101357.78;;;18.07;52.51
17649;BME280;8943;51.110;-4.158;2023-07-20T02:04:33;101353.22;;;18.07;52.73
17649;BME280;8943;51.110;-4.158;2023-07-20T02:07:01;101344.28;;;18.07;52.77
17649;BME280;8943;51.110;-4.158;2023-07-20T02:09:30;101349.38;;;18.10;52.77
17649;BME280;8943;51.110;-4.158;2023-07-20T02:11:59;101347.25;;;18.13;52.46
17649;BME280;8943;51.110;-4.158;2023-07-20T02:14:27;101343.69;;;18.13;52.71
17649;BME280;8943;51.110;-4.158;2023-07-20T02:16:56;101347.69;;;18.09;52.63
17649;BME280;8943;51.110;-4.158;2023-07-20T02:19:26;101346.16;;;18.06;52.48
17649;BME280;8943;51.110;-4.158;2023-07-20T02:21:56;101343.44;;;18.06;52.46
17649;BME280;8943;51.110;-4.158;2023-07-20T02:24:25;101336.91;;;17.99;52.52
17649;BME280;8943;51.110;-4.158;2023-07-20T02:26:53;101334.38;;;17.97;52.56
17649;BME280;8943;51.110;-4.158;2023-07-20T02:29:21;101341.22;;;17.92;52.22
17649;BME280;8943;51.110;-4.158;2023-07-20T02:31:50;101342.66;;;17.86;52.58
17649;BME280;8943;51.110;-4.158;2023-07-20T02:34:18;101340.38;;;17.82;52.57
17649;BME280;8943;51.110;-4.158;2023-07-20T02:36:46;101346.06;;;17.79;52.57
17649;BME280;8943;51.110;-4.158;2023-07-20T02:39:16;101348.06;;;17.77;52.71
17649;BME280;8943;51.110;-4.158;2023-07-20T02:41:44;101332.28;;;17.72;52.59
17649;BME280;8943;51.110;-4.158;2023-07-20T02:44:15;101332.72;;;17.67;52.73
17649;BME280;8943;51.110;-4.158;2023-07-20T02:46:43;101335.00;;;17.62;52.81
17649;BME280;8943;51.110;-4.158;2023-07-20T02:49:11;101335.53;;;17.56;52.31
17649;BME280;8943;51.110;-4.158;2023-07-20T02:51:40;101328.47;;;17.45;52.81
17649;BME280;8943;51.110;-4.158;2023-07-20T02:54:08;101326.19;;;17.41;52.63
17649;BME280;8943;51.110;-4.158;2023-07-20T02:56:38;101326.75;;;17.35;52.94
17649;BME280;8943;51.110;-4.158;2023-07-20T02:59:06;101330.72;;;17.31;52.87
17649;BME280;8943;51.110;-4.158;2023-07-20T03:01:34;101329.31;;;17.27;52.97
17649;BME280;8943;51.110;-4.158;2023-07-20T03:04:03;101321.94;;;17.19;53.15
17649;BME280;8943;51.110;-4.158;2023-07-20T03:06:31;101321.63;;;17.12;52.94
17649;BME280;8943;51.110;-4.158;2023-07-20T03:09:03;101317.69;;;17.07;53.12
17649;BME280;8943;51.110;-4.158;2023-07-20T03:11:32;101316.66;;;16.98;53.17
17649;BME280;8943;51.110;-4.158;2023-07-20T03:14:02;101329.00;;;16.91;53.01
17649;BME280;8943;51.110;-4.158;2023-07-20T03:16:30;101328.72;;;16.84;52.96
17649;BME280;8943;51.110;-4.158;2023-07-20T03:18:59;101323.00;;;16.78;53.17
17649;BME280;8943;51.110;-4.158;2023-07-20T03:21:28;101323.31;;;16.75;53.20
17649;BME280;8943;51.110;-4.158;2023-07-20T03:23:57;101326.13;;;16.73;53.34
17649;BME280;8943;51.110;-4.158;2023-07-20T03:26:25;101326.38;;;16.70;53.22
17649;BME280;8943;51.110;-4.158;2023-07-20T03:28:53;101326.78;;;16.65;53.19
17649;BME280;8943;51.110;-4.158;2023-07-20T03:31:23;101325.63;;;16.58;53.49
17649;BME280;8943;51.110;-4.158;2023-07-20T03:33:52;101327.59;;;16.56;53.24
17649;BME280;8943;51.110;-4.158;2023-07-20T03:36:20;101330.44;;;16.55;53.18
17649;BME280;8943;51.110;-4.158;2023-07-20T03:38:49;101330.56;;;16.53;53.17
17649;BME280;8943;51.110;-4.158;2023-07-20T03:41:18;101326.56;;;16.47;53.05
17649;BME280;8943;51.110;-4.158;2023-07-20T03:43:48;101315.22;;;16.44;53.36
17649;BME280;8943;51.110;-4.158;2023-07-20T03:46:17;101317.47;;;16.39;53.47
17649;BME280;8943;51.110;-4.158;2023-07-20T03:48:47;101328.53;;;16.36;53.51
17649;BME280;8943;51.110;-4.158;2023-07-20T03:51:16;101327.94;;;16.32;53.47
17649;BME280;8943;51.110;-4.158;2023-07-20T03:53:44;101325.38;;;16.31;53.38
17649;BME280;8943;51.110;-4.158;2023-07-20T03:56:13;101324.66;;;16.29;53.32
17649;BME280;8943;51.110;-4.158;2023-07-20T03:58:41;101330.88;;;16.29;53.73
17649;BME280;8943;51.110;-4.158;2023-07-20T04:01:10;101335.56;;;16.27;53.58
17649;BME280;8943;51.110;-4.158;2023-07-20T04:03:40;101327.63;;;16.26;53.51
17649;BME280;8943;51.110;-4.158;2023-07-20T04:06:13;101334.72;;;16.27;53.21
17649;BME280;8943;51.110;-4.158;2023-07-20T04:08:44;101329.59;;;16.23;53.61
17649;BME280;8943;51.110;-4.158;2023-07-20T04:11:14;101321.66;;;16.22;53.54
17649;BME280;8943;51.110;-4.158;2023-07-20T04:13:42;101326.44;;;16.18;53.55
17649;BME280;8943;51.110;-4.158;2023-07-20T04:16:10;101325.00;;;16.14;53.50
17649;BME280;8943;51.110;-4.158;2023-07-20T04:18:39;101328.09;;;16.10;53.59
17649;BME280;8943;51.110;-4.158;2023-07-20T04:21:08;101320.44;;;16.05;53.64
17649;BME280;8943;51.110;-4.158;2023-07-20T04:23:38;101328.03;;;16.00;53.72
17649;BME280;8943;51.110;-4.158;2023-07-20T04:26:06;101324.06;;;15.94;53.71
17649;BME280;8943;51.110;-4.158;2023-07-20T04:28:34;101327.16;;;15.90;53.71
17649;BME280;8943;51.110;-4.158;2023-07-20T04:31:12;101322.06;;;15.87;53.66
17649;BME280;8943;51.110;-4.158;2023-07-20T04:33:41;101324.75;;;15.87;53.83
17649;BME280;8943;51.110;-4.158;2023-07-20T04:36:10;101322.06;;;15.87;53.85
17649;BME280;8943;51.110;-4.158;2023-07-20T04:38:43;101325.69;;;15.86;53.95
17649;BME280;8943;51.110;-4.158;2023-07-20T04:41:11;101315.94;;;15.85;53.88
17649;BME280;8943;51.110;-4.158;2023-07-20T04:43:41;101315.84;;;15.86;53.64
17649;BME280;8943;51.110;-4.158;2023-07-20T04:46:10;101315.94;;;15.85;54.06
17649;BME280;8943;51.110;-4.158;2023-07-20T04:48:39;101318.91;;;15.82;53.83
17649;BME280;8943;51.110;-4.158;2023-07-20T04:51:07;101310.97;;;15.80;53.93
17649;BME280;8943;51.110;-4.158;2023-07-20T04:53:37;101312.81;;;15.80;53.92
17649;BME280;8943;51.110;-4.158;2023-07-20T04:56:08;101311.41;;;15.85;54.35
17649;BME280;8943;51.110;-4.158;2023-07-20T04:58:37;101310.16;;;15.89;54.13
17649;BME280;8943;51.110;-4.158;2023-07-20T05:01:07;101314.16;;;15.95;53.95
17649;BME280;8943;51.110;-4.158;2023-07-20T05:03:36;101307.44;;;16.01;53.75
17649;BME280;8943;51.110;-4.158;2023-07-20T05:06:04;101307.88;;;16.06;53.98
17649;BME280;8943;51.110;-4.158;2023-07-20T05:08:32;101305.75;;;16.09;53.91
17649;BME280;8943;51.110;-4.158;2023-07-20T05:11:01;101311.72;;;16.13;53.76
17649;BME280;8943;51.110;-4.158;2023-07-20T05:13:31;101315.97;;;16.15;53.95
17649;BME280;8943;51.110;-4.158;2023-07-20T05:15:59;101313.00;;;16.18;53.52
17649;BME280;8943;51.110;-4.158;2023-07-20T05:18:28;101311.75;;;16.22;53.94
17649;BME280;8943;51.110;-4.158;2023-07-20T05:20:57;101314.88;;;16.28;53.88
17649;BME280;8943;51.110;-4.158;2023-07-20T05:23:25;101307.28;;;16.33;53.99
17649;BME280;8943;51.110;-4.158;2023-07-20T05:25:54;101313.22;;;16.36;54.05
17649;BME280;8943;51.110;-4.158;2023-07-20T05:28:23;101312.94;;;16.39;53.96
17649;BME280;8943;51.110;-4.158;2023-07-20T05:30:53;101322.34;;;16.45;53.94
17649;BME280;8943;51.110;-4.158;2023-07-20T05:33:22;101309.59;;;16.47;54.13
17649;BME280;8943;51.110;-4.158;2023-07-20T05:35:51;101310.19;;;16.51;54.07
17649;BME280;8943;51.110;-4.158;2023-07-20T05:38:21;101313.88;;;16.59;53.92
17649;BME280;8943;51.110;-4.158;2023-07-20T05:40:50;101311.63;;;16.64;53.88
17649;BME280;8943;51.110;-4.158;2023-07-20T05:43:19;101313.03;;;16.68;54.07
17649;BME280;8943;51.110;-4.158;2023-07-20T05:45:47;101315.09;;;16.76;54.17
17649;BME280;8943;51.110;-4.158;2023-07-20T05:48:17;101311.97;;;16.81;54.08
17649;BME280;8943;51.110;-4.158;2023-07-20T05:50:46;101312.25;;;16.87;53.93
17649;BME280;8943;51.110;-4.158;2023-07-20T05:53:14;101305.47;;;16.93;53.95
17649;BME280;8943;51.110;-4.158;2023-07-20T05:55:44;101313.97;;;16.98;53.83
17649;BME280;8943;51.110;-4.158;2023-07-20T05:58:20;101319.81;;;17.03;53.84
17649;BME280;8943;51.110;-4.158;2023-07-20T06:00:50;101315.72;;;17.09;53.85
17649;BME280;8943;51.110;-4.158;2023-07-20T06:03:22;101310.59;;;17.15;53.89
17649;BME280;8943;51.110;-4.158;2023-07-20T06:05:50;101308.47;;;17.19;53.82
17649;BME280;8943;51.110;-4.158;2023-07-20T06:08:18;101311.44;;;17.25;53.87
17649;BME280;8943;51.110;-4.158;2023-07-20T06:10:50;101305.50;;;17.32;53.93
17649;BME280;8943;51.110;-4.158;2023-07-20T06:13:19;101311.03;;;17.40;54.13
17649;BME280;8943;51.110;-4.158;2023-07-20T06:15:48;101302.38;;;17.46;53.83
17649;BME280;8943;51.110;-4.158;2023-07-20T06:18:16;101305.91;;;17.56;53.82
17649;BME280;8943;51.110;-4.158;2023-07-20T06:20:50;101303.34;;;17.64;53.90
17649;BME280;8943;51.110;-4.158;2023-07-20T06:23:18;101298.53;;;17.78;53.76
17649;BME280;8943;51.110;-4.158;2023-07-20T06:25:47;101302.34;;;17.85;53.76
17649;BME280;8943;51.110;-4.158;2023-07-20T06:28:15;101301.47;;;17.94;53.83
17649;BME280;8943;51.110;-4.158;2023-07-20T06:30:44;101299.75;;;18.02;53.37
17649;BME280;8943;51.110;-4.158;2023-07-20T06:33:13;101298.84;;;18.12;53.80
17649;BME280;8943;51.110;-4.158;2023-07-20T06:35:41;101298.81;;;18.21;53.66
17649;BME280;8943;51.110;-4.158;2023-07-20T06:38:11;101298.50;;;18.24;53.82
17649;BME280;8943;51.110;-4.158;2023-07-20T06:40:43;101306.44;;;18.36;53.80
17649;BME280;8943;51.110;-4.158;2023-07-20T06:43:12;101302.84;;;18.45;53.47
17649;BME280;8943;51.110;-4.158;2023-07-20T06:45:43;101302.91;;;18.53;53.77
17649;BME280;8943;51.110;-4.158;2023-07-20T06:48:12;101304.16;;;18.59;53.62
17649;BME280;8943;51.110;-4.158;2023-07-20T06:50:40;101305.13;;;18.67;53.68
17649;BME280;8943;51.110;-4.158;2023-07-20T06:53:28;101305.25;;;18.75;53.85
17649;BME280;8943;51.110;-4.158;2023-07-20T06:56:00;101311.59;;;18.84;53.80
17649;BME280;8943;51.110;-4.158;2023-07-20T06:58:28;101310.13;;;18.90;54.05
17649;BME280;8943;51.110;-4.158;2023-07-20T07:00:56;101312.31;;;19.04;53.36
17649;BME280;8943;51.110;-4.158;2023-07-20T07:03:25;101310.00;;;19.09;53.85
17649;BME280;8943;51.110;-4.158;2023-07-20T07:05:55;101309.06;;;19.18;53.89
17649;BME280;8943;51.110;-4.158;2023-07-20T07:08:23;101302.56;;;19.29;53.98
17649;BME280;8943;51.110;-4.158;2023-07-20T07:10:54;101305.88;;;19.41;53.74
17649;BME280;8943;51.110;-4.158;2023-07-20T07:13:22;101305.94;;;19.49;53.87
17649;BME280;8943;51.110;-4.158;2023-07-20T07:15:51;101302.84;;;19.62;53.76
17649;BME280;8943;51.110;-4.158;2023-07-20T07:18:20;101308.16;;;19.71;53.65
17649;BME280;8943;51.110;-4.158;2023-07-20T07:20:51;101307.75;;;19.84;53.83
17649;BME280;8943;51.110;-4.158;2023-07-20T07:23:21;101309.03;;;19.98;54.11
17649;BME280;8943;51.110;-4.158;2023-07-20T07:25:49;101313.53;;;20.15;53.77
17649;BME280;8943;51.110;-4.158;2023-07-20T07:28:21;101306.00;;;20.27;53.84
17649;BME280;8943;51.110;-4.158;2023-07-20T07:30:49;101318.75;;;20.43;53.66
17649;BME280;8943;51.110;-4.158;2023-07-20T07:33:18;101309.38;;;20.55;53.65
17649;BME280;8943;51.110;-4.158;2023-07-20T07:35:47;101304.81;;;20.64;53.60
17649;BME280;8943;51.110;-4.158;2023-07-20T07:38:15;101308.22;;;20.74;53.44
17649;BME280;8943;51.110;-4.158;2023-07-20T07:41:04;101305.22;;;20.85;53.37
17649;BME280;8943;51.110;-4.158;2023-07-20T07:43:34;101306.59;;;20.89;53.43
17649;BME280;8943;51.110;-4.158;2023-07-20T07:46:04;101298.97;;;21.01;53.35
17649;BME280;8943;51.110;-4.158;2023-07-20T07:48:33;101299.34;;;21.14;53.11
17649;BME280;8943;51.110;-4.158;2023-07-20T07:51:01;101298.34;;;21.15;53.10
17649;BME280;8943;51.110;-4.158;2023-07-20T07:53:29;101295.28;;;21.26;53.47
17649;BME280;8943;51.110;-4.158;2023-07-20T07:55:59;101300.41;;;21.38;53.17
17649;BME280;8943;51.110;-4.158;2023-07-20T07:58:28;101292.28;;;21.46;53.04
17649;BME280;8943;51.110;-4.158;2023-07-20T08:00:57;101295.97;;;21.61;52.90
17649;BME280;8943;51.110;-4.158;2023-07-20T08:03:27;101299.22;;;21.73;52.73
17649;BME280;8943;51.110;-4.158;2023-07-20T08:05:58;101300.72;;;21.83;52.62
17649;BME280;8943;51.110;-4.158;2023-07-20T08:08:26;101301.72;;;21.91;52.57
17649;BME280;8943;51.110;-4.158;2023-07-20T08:10:58;101299.66;;;22.01;52.74
17649;BME280;8943;51.110;-4.158;2023-07-20T08:13:33;101293.34;;;22.08;52.26
17649;BME280;8943;51.110;-4.158;2023-07-20T08:16:04;101292.84;;;22.21;52.19
17649;BME280;8943;51.110;-4.158;2023-07-20T08:18:32;101294.84;;;22.35;51.80
17649;BME280;8943;51.110;-4.158;2023-07-20T08:21:03;101294.94;;;22.50;51.78
17649;BME280;8943;51.110;-4.158;2023-07-20T08:23:34;101291.84;;;22.53;51.45
17649;BME280;8943;51.110;-4.158;2023-07-20T08:26:04;101282.34;;;22.57;51.14
17649;BME280;8943;51.110;-4.158;2023-07-20T08:28:32;101281.69;;;22.55;51.16
17649;BME280;8943;51.110;-4.158;2023-07-20T08:31:01;101284.88;;;22.59;50.64
17649;BME280;8943;51.110;-4.158;2023-07-20T08:33:33;101285.88;;;22.66;50.77
17649;BME280;8943;51.110;-4.158;2023-07-20T08:36:02;101290.34;;;22.82;50.67
17649;BME280;8943;51.110;-4.158;2023-07-20T08:38:30;101278.75;;;22.96;49.96
17649;BME280;8943;51.110;-4.158;2023-07-20T08:40:59;101278.22;;;23.01;49.47
17649;BME280;8943;51.110;-4.158;2023-07-20T08:43:30;101273.97;;;22.98;49.12
17649;BME280;8943;51.110;-4.158;2023-07-20T08:46:00;101274.84;;;22.99;49.07
17649;BME280;8943;51.110;-4.158;2023-07-20T08:48:50;101276.53;;;23.00;48.59
17649;BME280;8943;51.110;-4.158;2023-07-20T08:51:22;101283.69;;;22.93;48.54
17649;BME280;8943;51.110;-4.158;2023-07-20T08:53:53;101284.19;;;22.96;48.58
17649;BME280;8943;51.110;-4.158;2023-07-20T08:56:23;101289.72;;;23.03;48.43
17649;BME280;8943;51.110;-4.158;2023-07-20T08:58:53;101278.06;;;23.17;48.40
17649;BME280;8943;51.110;-4.158;2023-07-20T09:01:27;101286.38;;;23.24;47.96
17649;BME280;8943;51.110;-4.158;2023-07-20T09:04:00;101288.59;;;23.20;47.67
17649;BME280;8943;51.110;-4.158;2023-07-20T09:06:33;101289.25;;;23.22;47.66
17649;BME280;8943;51.110;-4.158;2023-07-20T09:09:17;101280.69;;;23.33;47.96
17649;BME280;8943;51.110;-4.158;2023-07-20T09:12:00;101291.78;;;23.47;47.63
17649;BME280;8943;51.110;-4.158;2023-07-20T09:14:38;101289.53;;;23.50;46.86
17649;BME280;8943;51.110;-4.158;2023-07-20T09:17:12;101282.41;;;23.49;47.14
17649;BME280;8943;51.110;-4.158;2023-07-20T09:19:50;101281.78;;;23.62;46.94
17649;BME280;8943;51.110;-4.158;2023-07-20T09:22:18;101281.25;;;23.67;46.75
17649;BME280;8943;51.110;-4.158;2023-07-20T09:25:02;101284.16;;;23.65;46.60
17649;BME280;8943;51.110;-4.158;2023-07-20T09:27:35;101279.41;;;23.67;46.62
17649;BME280;8943;51.110;-4.158;2023-07-20T09:30:28;101272.09;;;23.82;46.00
17649;BME280;8943;51.110;-4.158;2023-07-20T09:33:01;101283.81;;;23.83;45.92
17649;BME280;8943;51.110;-4.158;2023-07-20T09:36:07;101282.75;;;23.69;45.75
17649;BME280;8943;51.110;-4.158;2023-07-20T09:38:59;101275.16;;;23.64;46.25
17649;BME280;8943;51.110;-4.158;2023-07-20T09:41:40;101285.69;;;23.68;46.57
17649;BME280;8943;51.110;-4.158;2023-07-20T09:44:37;101281.91;;;23.69;46.45
17649;BME280;8943;51.110;-4.158;2023-07-20T09:47:10;101285.19;;;23.64;46.32
17649;BME280;8943;51.110;-4.158;2023-07-20T09:49:42;101281.78;;;23.62;46.34
17649;BME280;8943;51.110;-4.158;2023-07-20T09:52:19;101277.75;;;23.58;46.72
17649;BME280;8943;51.110;-4.158;2023-07-20T09:54:54;101277.69;;;23.66;46.78
17649;BME280;8943;51.110;-4.158;2023-07-20T09:57:23;101281.66;;;23.78;46.86
17649;BME280;8943;51.110;-4.158;2023-07-20T09:59:55;101274.25;;;23.87;46.40
17649;BME280;8943;51.110;-4.158;2023-07-20T10:02:46;101276.44;;;23.92;46.09
17649;BME280;8943;51.110;-4.158;2023-07-20T10:05:16;101263.47;;;23.94;45.59
17649;BME280;8943;51.110;-4.158;2023-07-20T10:07:48;101277.00;;;24.02;45.81
17649;BME280;8943;51.110;-4.158;2023-07-20T10:10:35;101274.56;;;24.07;45.70
17649;BME280;8943;51.110;-4.158;2023-07-20T10:13:06;101266.75;;;24.04;44.28
17649;BME280;8943;51.110;-4.158;2023-07-20T10:15:48;101265.53;;;23.92;44.64
17649;BME280;8943;51.110;-4.158;2023-07-20T10:18:22;101262.34;;;23.88;44.89
17649;BME280;8943;51.110;-4.158;2023-07-20T10:24:05;101268.34;;;23.83;44.63
17649;BME280;8943;51.110;-4.158;2023-07-20T10:26:36;101263.81;;;23.90;45.14
17649;BME280;8943;51.110;-4.158;2023-07-20T10:29:08;101268.81;;;24.17;44.90
17649;BME280;8943;51.110;-4.158;2023-07-20T10:31:37;101255.78;;;24.42;44.53
17649;BME280;8943;51.110;-4.158;2023-07-20T10:34:06;101267.28;;;24.58;43.93
17649;BME280;8943;51.110;-4.158;2023-07-20T10:36:44;101265.28;;;24.67;43.14
17649;BME280;8943;51.110;-4.158;2023-07-20T10:39:35;101263.19;;;24.69;43.31
17649;BME280;8943;51.110;-4.158;2023-07-20T10:42:08;101265.94;;;24.69;43.54
17649;BME280;8943;51.110;-4.158;2023-07-20T10:44:39;101268.66;;;24.69;43.67
17649;BME280;8943;51.110;-4.158;2023-07-20T10:47:10;101266.13;;;24.67;44.22
17649;BME280;8943;51.110;-4.158;2023-07-20T10:50:02;101268.53;;;24.77;44.24
17649;BME280;8943;51.110;-4.158;2023-07-20T10:52:37;101266.19;;;24.89;43.61
17649;BME280;8943;51.110;-4.158;2023-07-20T10:55:23;101270.84;;;24.95;42.83
17649;BME280;8943;51.110;-4.158;2023-07-20T10:58:06;101271.16;;;24.85;42.14
17649;BME280;8943;51.110;-4.158;2023-07-20T11:00:54;101266.09;;;24.82;42.09
17649;BME280;8943;51.110;-4.158;2023-07-20T11:03:30;101266.59;;;24.71;42.24
17649;BME280;8943;51.110;-4.158;2023-07-20T11:06:30;101259.00;;;24.66;42.57
17649;BME280;8943;51.110;-4.158;2023-07-20T11:09:11;101269.06;;;24.66;42.14
17649;BME280;8943;51.110;-4.158;2023-07-20T11:11:48;101260.22;;;24.64;42.00
17649;BME280;8943;51.110;-4.158;2023-07-20T11:14:22;101263.25;;;24.54;41.99
17649;BME280;8943;51.110;-4.158;2023-07-20T11:17:11;101268.63;;;24.48;42.33
17649;BME280;8943;51.110;-4.158;2023-07-20T11:19:55;101259.59;;;24.47;42.28
17649;BME280;8943;51.110;-4.158;2023-07-20T11:22:27;101262.13;;;24.49;42.44
17649;BME280;8943;51.110;-4.158;2023-07-20T11:24:55;101262.53;;;24.46;42.60
17649;BME280;8943;51.110;-4.158;2023-07-20T11:27:26;101244.75;;;24.50;42.24
17649;BME280;8943;51.110;-4.158;2023-07-20T11:29:56;101257.78;;;24.54;42.07
17649;BME280;8943;51.110;-4.158;2023-07-20T11:32:27;101255.94;;;24.55;42.37
17649;BME280;8943;51.110;-4.158;2023-07-20T11:35:12;101250.94;;;24.58;41.97
17649;BME280;8943;51.110;-4.158;2023-07-20T11:37:44;101251.09;;;24.72;41.33
17649;BME280;8943;51.110;-4.158;2023-07-20T11:40:13;101242.22;;;24.84;40.99
17649;BME280;8943;51.110;-4.158;2023-07-20T11:42:43;101252.03;;;25.00;41.08
17649;BME280;8943;51.110;-4.158;2023-07-20T11:45:16;101249.38;;;25.07;40.61
17649;BME280;8943;51.110;-4.158;2023-07-20T11:47:44;101252.19;;;25.13;39.80
17649;BME280;8943;51.110;-4.158;2023-07-20T11:50:15;101255.69;;;25.07;39.75
17649;BME280;8943;51.110;-4.158;2023-07-20T11:52:58;101250.59;;;25.04;37.92
17649;BME280;8943;51.110;-4.158;2023-07-20T11:55:32;101252.72;;;24.87;37.70
17649;BME280;8943;51.110;-4.158;2023-07-20T11:58:14;101254.84;;;24.71;37.81
17649;BME280;8943;51.110;-4.158;2023-07-20T12:00:44;101242.31;;;24.55;37.47
17649;BME280;8943;51.110;-4.158;2023-07-20T12:03:13;101257.91;;;24.46;37.98
17649;BME280;8943;51.110;-4.158;2023-07-20T12:05:42;101246.75;;;24.41;37.61
17649;BME280;8943;51.110;-4.158;2023-07-20T12:08:35;101255.78;;;24.42;37.11
17649;BME280;8943;51.110;-4.158;2023-07-20T12:11:32;101240.16;;;24.35;38.65
17649;BME280;8943;51.110;-4.158;2023-07-20T12:14:03;101239.88;;;24.45;38.62
17649;BME280;8943;51.110;-4.158;2023-07-20T12:16:43;101244.31;;;24.67;38.83
17649;BME280;8943;51.110;-4.158;2023-07-20T12:19:13;101244.78;;;24.71;38.46
17649;BME280;8943;51.110;-4.158;2023-07-20T12:21:42;101249.16;;;24.87;38.06
17649;BME280;8943;51.110;-4.158;2023-07-20T12:24:12;101245.84;;;24.91;38.31
17649;BME280;8943;51.110;-4.158;2023-07-20T12:26:40;101231.25;;;24.99;38.49
17649;BME280;8943;51.110;-4.158;2023-07-20T12:29:12;101242.72;;;25.09;37.05
17649;BME280;8943;51.110;-4.158;2023-07-20T12:31:40;101241.69;;;24.96;37.02
17649;BME280;8943;51.110;-4.158;2023-07-20T12:34:12;101248.38;;;24.72;38.65
17649;BME280;8943;51.110;-4.158;2023-07-20T12:36:57;101243.94;;;24.71;39.68
17649;BME280;8943;51.110;-4.158;2023-07-20T12:39:28;101245.25;;;24.75;39.69
17649;BME280;8943;51.110;-4.158;2023-07-20T12:42:01;101243.94;;;24.71;39.99
17649;BME280;8943;51.110;-4.158;2023-07-20T12:44:35;101241.81;;;24.66;40.61
17649;BME280;8943;51.110;-4.158;2023-07-20T12:47:04;101246.28;;;24.74;40.89
17649;BME280;8943;51.110;-4.158;2023-07-20T12:49:36;101241.22;;;24.92;40.61
17649;BME280;8943;51.110;-4.158;2023-07-20T12:52:05;101228.31;;;25.01;39.92
17649;BME280;8943;51.110;-4.158;2023-07-20T12:54:35;101230.59;;;24.97;38.69
17649;BME280;8943;51.110;-4.158;2023-07-20T12:57:06;101234.69;;;24.86;38.81
17649;BME280;8943;51.110;-4.158;2023-07-20T12:59:39;101240.34;;;24.85;39.15
17649;BME280;8943;51.110;-4.158;2023-07-20T13:02:09;101240.91;;;24.80;39.75
17649;BME280;8943;51.110;-4.158;2023-07-20T13:04:50;101238.19;;;24.80;39.81
17649;BME280;8943;51.110;-4.158;2023-07-20T13:07:31;101232.22;;;24.91;40.13
17649;BME280;8943;51.110;-4.158;2023-07-20T13:10:04;101234.03;;;25.06;40.18
17649;BME280;8943;51.110;-4.158;2023-07-20T13:12:34;101236.19;;;24.89;40.92
17649;BME280;8943;51.110;-4.158;2023-07-20T13:15:06;101226.75;;;24.91;40.22
17649;BME280;8943;51.110;-4.158;2023-07-20T13:17:37;101236.84;;;25.12;39.65